Time;durP1;ratioP1;P1;durP2;ratioP2;P2;SDS_P1;SDS_P2;PMS_P1;PMS_P2;Temp;Humidity;BMP_temperature;BMP_pressure;BME280_temperature;BME280_humidity;BME280_pressure;Samples;Min_cycle;Max_cycle;Signal;HPM_P1;HPM_P2
2023/12/22 00:01:20;;;;;;;8.70;2.50;;;;;;;18.99;63.32;100360.88;5000715;28;20137;-38
2023/12/22 00:03:46;;;;;;;8.65;2.65;;;;;;;18.96;63.20;100359.53;4998718;28;20033;-38
2023/12/22 00:06:12;;;;;;;9.27;2.67;;;;;;;18.97;63.21;100387.81;5009766;28;20037;-36
2023/12/22 00:08:37;;;;;;;7.65;2.63;;;;;;;18.95;63.57;100370.81;5002273;28;20351;-36
2023/12/22 00:11:04;;;;;;;9.95;2.83;;;;;;;18.94;63.29;100385.66;5003147;28;20414;-38
2023/12/22 00:13:29;;;;;;;9.40;2.60;;;;;;;18.91;63.45;100385.13;5003898;28;20041;-37
2023/12/22 00:15:55;;;;;;;8.30;2.35;;;;;;;18.91;63.53;100385.13;4985620;28;20037;-38
2023/12/22 00:18:20;;;;;;;7.75;2.53;;;;;;;18.90;63.46;100386.19;5002679;28;20026;-37
2023/12/22 00:20:46;;;;;;;11.73;2.60;;;;;;;18.90;63.55;100388.13;4999922;28;20030;-37
2023/12/22 00:23:11;;;;;;;9.70;3.05;;;;;;;18.89;63.55;100370.03;5000240;28;20033;-36
2023/12/22 00:25:36;;;;;;;10.70;2.88;;;;;;;18.87;63.32;100384.06;5004690;28;20049;-36
2023/12/22 00:28:02;;;;;;;8.60;2.60;;;;;;;18.87;63.41;100364.00;5004505;28;20037;-36
2023/12/22 00:30:27;;;;;;;7.85;2.72;;;;;;;18.86;63.30;100370.59;5000813;28;20017;-36
2023/12/22 00:32:53;;;;;;;8.32;2.28;;;;;;;18.86;63.54;100371.44;4984845;28;20191;-36
2023/12/22 00:35:18;;;;;;;8.95;2.47;;;;;;;18.84;63.08;100362.66;5001330;28;20093;-38
2023/12/22 00:37:43;;;;;;;8.18;2.55;;;;;;;18.84;63.11;100359.13;5009442;28;20061;-39
2023/12/22 00:40:09;;;;;;;8.80;3.00;;;;;;;18.83;63.16;100374.75;5000537;28;20024;-37
2023/12/22 00:42:35;;;;;;;8.75;3.05;;;;;;;18.83;63.26;100382.19;5002838;28;20375;-37
2023/12/22 00:45:00;;;;;;;9.02;2.90;;;;;;;18.82;63.37;100395.09;5000459;28;20033;-38
2023/12/22 00:47:26;;;;;;;9.55;3.15;;;;;;;18.81;63.27;100400.88;5017380;28;20030;-36
2023/12/22 00:49:51;;;;;;;10.75;2.80;;;;;;;18.81;63.14;100406.38;5008028;28;20029;-36
2023/12/22 00:52:16;;;;;;;9.43;2.60;;;;;;;18.80;63.20;100410.22;5007872;28;20034;-36
2023/12/22 00:54:42;;;;;;;9.43;2.58;;;;;;;18.77;63.16;100409.72;5003793;28;20025;-37
2023/12/22 00:57:07;;;;;;;7.47;2.38;;;;;;;18.77;62.86;100411.63;5005231;28;20033;-35
2023/12/22 00:59:33;;;;;;;12.63;2.90;;;;;;;18.76;62.97;100409.97;5012020;28;20021;-38
2023/12/22 01:01:58;;;;;;;9.35;2.60;;;;;;;18.75;62.85;100411.13;5004603;28;20085;-38
2023/12/22 01:04:23;;;;;;;8.43;2.45;;;;;;;18.74;62.92;100409.47;5005122;28;20058;-37
2023/12/22 01:06:49;;;;;;;7.90;2.63;;;;;;;18.71;62.62;100402.63;5004728;28;20034;-37
2023/12/22 01:09:15;;;;;;;10.32;3.38;;;;;;;18.72;62.89;100407.03;5003071;28;20030;-38
2023/12/22 01:11:41;;;;;;;7.70;2.50;;;;;;;18.70;62.72;100408.41;5005084;28;20108;-37
2023/12/22 01:14:06;;;;;;;7.03;2.55;;;;;;;18.69;62.84;100404.06;5006635;28;20030;-37
2023/12/22 01:16:32;;;;;;;8.05;2.70;;;;;;;18.67;62.83;100412.56;5004313;28;20286;-35
2023/12/22 01:18:58;;;;;;;9.07;2.60;;;;;;;18.66;62.85;100413.66;5008816;28;20459;-36
2023/12/22 01:21:23;;;;;;;7.70;2.70;;;;;;;18.66;62.73;100412.84;5008907;28;20030;-37
2023/12/22 01:23:48;;;;;;;7.00;2.58;;;;;;;18.65;62.88;100413.94;5005316;28;20040;-36
2023/12/22 01:26:14;;;;;;;11.00;2.92;;;;;;;18.64;63.01;100417.81;5009080;28;20045;-36
2023/12/22 01:28:39;;;;;;;9.73;3.05;;;;;;;18.63;62.98;100414.25;5008945;28;20037;-37
2023/12/22 01:31:05;;;;;;;8.38;2.55;;;;;;;18.61;62.75;100402.75;4987748;28;20036;-38
2023/12/22 01:33:30;;;;;;;7.55;2.45;;;;;;;18.61;62.64;100424.69;5011068;28;20642;-37
2023/12/22 01:35:55;;;;;;;9.38;2.78;;;;;;;18.59;62.58;100449.69;5010568;28;20206;-37
2023/12/22 01:38:21;;;;;;;7.00;2.60;;;;;;;18.59;62.65;100455.19;5001304;28;20029;-37
2023/12/22 01:40:47;;;;;;;6.75;2.53;;;;;;;18.59;62.48;100457.94;5000925;28;20561;-36
2023/12/22 01:43:14;;;;;;;6.13;2.50;;;;;;;18.58;62.50;100441.75;5003223;28;20088;-37
2023/12/22 01:45:43;;;;;;;8.98;2.70;;;;;;;18.57;62.56;100437.38;4996854;28;20069;-37
2023/12/22 01:48:09;;;;;;;7.72;2.70;;;;;;;18.56;62.48;100436.53;5005624;28;20514;-38
2023/12/22 01:50:36;;;;;;;9.02;2.83;;;;;;;18.55;62.55;100436.84;5005590;28;20054;-37
2023/12/22 01:53:02;;;;;;;9.73;2.85;;;;;;;18.55;62.64;100436.84;5005700;28;20042;-37
2023/12/22 01:55:27;;;;;;;8.70;2.65;;;;;;;18.53;62.75;100441.81;5012344;28;20257;-38
2023/12/22 01:57:53;;;;;;;7.85;2.58;;;;;;;18.52;62.82;100431.94;4985248;28;20033;-37
2023/12/22 02:00:18;;;;;;;10.00;2.90;;;;;;;18.52;62.40;100429.19;4987405;28;20573;-38
2023/12/22 02:02:44;;;;;;;7.55;2.92;;;;;;;18.51;62.56;100435.78;5006977;28;20049;-36
2023/12/22 02:05:11;;;;;;;9.73;2.67;;;;;;;18.51;62.59;100446.78;4988855;28;20482;-38
2023/12/22 02:07:39;;;;;;;9.90;2.78;;;;;;;18.49;62.44;100433.34;5008087;28;20037;-37
2023/12/22 02:10:06;;;;;;;9.98;3.10;;;;;;;18.49;62.42;100441.56;5005555;28;20029;-37
2023/12/22 02:12:32;;;;;;;9.68;2.90;;;;;;;18.48;62.42;100437.19;5001018;28;20549;-36
2023/12/22 02:14:57;;;;;;;11.05;2.92;;;;;;;18.44;62.55;100434.22;4979485;28;20029;-35
2023/12/22 02:17:45;;;;;;;9.35;2.63;;;;;;;18.47;62.38;100445.69;5022633;28;20084;-36
2023/12/22 02:20:11;;;;;;;9.38;2.58;;;;;;;18.44;62.30;100436.13;4982602;28;20513;-35
2023/12/22 02:22:36;;;;;;;11.23;3.42;;;;;;;18.46;62.48;100446.81;5009645;28;20030;-36
2023/12/22 02:25:02;;;;;;;11.23;3.03;;;;;;;18.44;62.40;100439.69;5007675;28;20036;-37
2023/12/22 02:27:28;;;;;;;9.48;2.67;;;;;;;18.44;62.33;100436.13;4995001;28;20156;-37
2023/12/22 02:30:24;;;;;;;11.38;2.70;;;;;;;18.42;62.28;100436.41;5004119;28;20116;-36
2023/12/22 02:32:52;;;;;;;9.23;2.78;;;;;;;18.42;62.16;100441.91;4995832;28;20049;-36
2023/12/22 02:35:20;;;;;;;7.95;2.42;;;;;;;18.41;62.23;100461.41;5000957;28;20414;-37
2023/12/22 02:37:47;;;;;;;7.28;2.58;;;;;;;18.41;62.43;100437.53;4988522;28;20051;-37
2023/12/22 02:40:12;;;;;;;6.43;2.47;;;;;;;18.39;62.30;100428.78;5020975;28;20159;-36
2023/12/22 02:42:38;;;;;;;13.50;2.80;;;;;;;18.39;61.83;100447.97;4987602;28;20026;-36
2023/12/22 02:45:05;;;;;;;10.43;3.03;;;;;;;18.37;62.06;100428.25;4990868;28;20033;-37
2023/12/22 02:47:32;;;;;;;10.80;2.85;;;;;;;18.37;62.22;100432.88;5004282;28;20022;-36
2023/12/22 02:49:57;;;;;;;8.07;2.85;;;;;;;18.37;62.27;100430.16;5004030;28;20028;-36
2023/12/22 02:52:23;;;;;;;6.75;2.45;;;;;;;18.35;62.25;100427.69;4983074;28;20315;-36
2023/12/22 02:54:48;;;;;;;11.52;3.05;;;;;;;18.35;62.08;100421.41;5000064;28;20045;-37
2023/12/22 02:57:13;;;;;;;9.65;2.75;;;;;;;18.35;62.08;100440.63;4999527;28;20108;-36
2023/12/22 02:59:39;;;;;;;9.00;2.67;;;;;;;18.34;62.12;100428.81;5003086;28;20072;-36
2023/12/22 03:02:04;;;;;;;8.45;2.70;;;;;;;18.34;62.33;100428.00;5002690;28;20029;-38
2023/12/22 03:04:30;;;;;;;8.32;3.05;;;;;;;18.33;62.15;100432.69;4990089;28;20083;-38
2023/12/22 03:06:55;;;;;;;11.88;2.90;;;;;;;18.32;62.14;100446.66;4992906;28;20030;-37
2023/12/22 03:09:21;;;;;;;9.77;2.75;;;;;;;18.31;62.33;100434.03;5002072;28;20049;-35
2023/12/22 03:11:47;;;;;;;6.18;2.60;;;;;;;18.31;62.22;100437.63;5007142;28;20052;-35
2023/12/22 03:14:12;;;;;;;12.70;3.30;;;;;;;18.31;62.24;100434.88;5004716;28;20022;-36
2023/12/22 03:16:38;;;;;;;7.88;2.45;;;;;;;18.30;61.93;100435.19;4981734;28;20104;-36
2023/12/22 03:19:03;;;;;;;6.03;2.40;;;;;;;18.31;61.92;100440.38;5002435;28;20092;-36
2023/12/22 03:21:29;;;;;;;7.18;2.83;;;;;;;18.30;62.18;100426.94;5002842;28;20022;-36
2023/12/22 03:23:54;;;;;;;8.85;2.67;;;;;;;18.28;62.15;100444.50;5011708;28;20025;-38
2023/12/22 03:26:19;;;;;;;9.93;2.75;;;;;;;18.27;61.97;100453.84;5006343;28;20068;-36
2023/12/22 03:28:45;;;;;;;11.32;2.40;;;;;;;18.26;61.80;100454.94;5011470;28;20033;-36
2023/12/22 03:31:10;;;;;;;6.72;2.50;;;;;;;18.26;61.88;100443.16;5000777;28;20498;-36
2023/12/22 03:33:36;;;;;;;8.10;2.50;;;;;;;18.24;61.97;100437.94;5009220;28;20037;-36
2023/12/22 03:36:01;;;;;;;10.32;2.83;;;;;;;18.23;61.96;100422.63;5004516;28;20026;-37
2023/12/22 03:38:26;;;;;;;6.32;2.50;;;;;;;18.24;61.58;100442.63;4993874;28;20021;-35
2023/12/22 03:40:52;;;;;;;7.72;2.75;;;;;;;18.24;61.76;100439.88;5002489;28;20065;-37
2023/12/22 03:43:17;;;;;;;7.97;2.33;;;;;;;18.22;61.92;100434.69;5004176;28;20030;-36
2023/12/22 03:45:42;;;;;;;6.80;2.55;;;;;;;18.22;61.71;100426.47;5005479;28;20021;-37
2023/12/22 03:48:08;;;;;;;9.70;2.50;;;;;;;18.22;61.94;100436.59;5000807;28;20461;-36
2023/12/22 03:50:33;;;;;;;8.30;2.67;;;;;;;18.22;61.80;100440.19;5003358;28;20068;-36
2023/12/22 03:52:59;;;;;;;9.10;2.80;;;;;;;18.22;61.65;100425.63;4992908;28;20022;-36
2023/12/22 03:55:24;;;;;;;9.32;2.63;;;;;;;18.21;61.82;100433.06;4971689;28;20561;-36
2023/12/22 03:57:49;;;;;;;8.85;2.75;;;;;;;18.22;61.85;100442.09;5006053;28;20451;-36
2023/12/22 04:00:16;;;;;;;7.32;2.33;;;;;;;18.21;61.68;100427.56;5005391;28;20031;-35
2023/12/22 04:02:41;;;;;;;8.65;2.63;;;;;;;18.21;62.02;100421.25;5002532;28;20033;-37
2023/12/22 04:05:07;;;;;;;9.13;2.70;;;;;;;18.21;61.61;100437.69;5001143;28;20021;-36
2023/12/22 04:07:32;;;;;;;7.47;2.38;;;;;;;18.20;61.66;100433.34;5002379;28;20030;-37
2023/12/22 04:09:58;;;;;;;8.73;3.05;;;;;;;18.21;61.78;100452.25;4998499;28;20022;-37
2023/12/22 04:12:23;;;;;;;9.60;2.42;;;;;;;18.19;61.79;100440.75;5000705;28;20128;-35
2023/12/22 04:14:48;;;;;;;7.45;2.40;;;;;;;18.20;62.14;100436.09;5007478;28;20065;-36
2023/12/22 04:17:14;;;;;;;10.07;2.85;;;;;;;18.19;61.78;100439.94;5001621;28;20030;-37
2023/12/22 04:19:39;;;;;;;8.98;2.83;;;;;;;18.16;61.36;100454.22;4985155;28;20072;-37
2023/12/22 04:22:04;;;;;;;5.85;2.10;;;;;;;18.18;61.69;100458.28;5004283;28;20029;-37
2023/12/22 04:24:30;;;;;;;7.72;2.70;;;;;;;18.16;61.70;100452.31;5003130;28;20057;-37
2023/12/22 04:26:55;;;;;;;7.65;2.58;;;;;;;18.12;61.53;100443.81;5003406;28;20062;-36
2023/12/22 04:29:20;;;;;;;7.22;2.58;;;;;;;18.15;61.69;100441.59;5001871;28;20030;-35
2023/12/22 04:31:46;;;;;;;8.40;2.53;;;;;;;18.12;61.39;100460.28;4997399;28;20065;-38
2023/12/22 04:34:15;;;;;;;11.18;3.00;;;;;;;18.11;61.69;100455.06;5002580;28;20034;-37
2023/12/22 04:36:41;;;;;;;11.18;2.65;;;;;;;18.11;61.79;100453.16;4998743;28;20034;-36
2023/12/22 04:39:06;;;;;;;6.65;2.45;;;;;;;18.11;61.89;100453.16;5008053;28;20021;-37
2023/12/22 04:41:32;;;;;;;6.32;2.38;;;;;;;18.10;61.85;100446.03;5000927;28;20120;-38
2023/12/22 04:43:58;;;;;;;8.27;2.20;;;;;;;18.11;61.92;100422.16;5000002;28;20037;-37
2023/12/22 04:46:23;;;;;;;8.77;2.63;;;;;;;18.11;62.08;100442.19;4999242;28;20030;-37
2023/12/22 04:48:48;;;;;;;6.50;2.55;;;;;;;18.10;62.09;100437.81;5005942;28;20477;-36
2023/12/22 04:51:14;;;;;;;10.90;2.40;;;;;;;18.10;61.81;100447.97;4985595;28;20029;-36
2023/12/22 04:53:39;;;;;;;7.03;2.20;;;;;;;18.10;62.15;100461.69;5002290;28;20460;-37
2023/12/22 04:56:05;;;;;;;13.57;2.97;;;;;;;18.09;62.26;100447.13;4981818;28;20037;-36
2023/12/22 04:58:30;;;;;;;8.05;2.45;;;;;;;18.12;62.09;100454.78;4998364;28;20026;-37
2023/12/22 05:00:55;;;;;;;13.32;2.55;;;;;;;18.17;62.09;100447.63;5003475;28;20474;-38
2023/12/22 05:03:21;;;;;;;9.60;2.58;;;;;;;18.21;62.23;100459.66;5001721;28;20034;-37
2023/12/22 05:05:46;;;;;;;6.00;1.92;;;;;;;18.25;62.16;100456.03;5007755;28;20612;-38
2023/12/22 05:08:12;;;;;;;8.48;2.22;;;;;;;18.33;62.10;100443.66;5001942;28;20025;-36
2023/12/22 05:10:37;;;;;;;6.85;2.25;;;;;;;18.42;62.30;100446.59;5001550;28;20112;-36
2023/12/22 05:13:03;;;;;;;5.60;2.40;;;;;;;18.50;62.17;100454.16;5001274;28;20664;-36
2023/12/22 05:15:28;;;;;;;6.20;2.35;;;;;;;18.60;62.19;100448.59;4999870;28;20439;-36
2023/12/22 05:17:54;;;;;;;6.97;2.40;;;;;;;18.70;62.14;100447.66;4984559;28;20525;-38
2023/12/22 05:20:19;;;;;;;7.60;2.40;;;;;;;18.77;61.93;100439.06;5000161;28;20402;-38
2023/12/22 05:22:45;;;;;;;7.78;2.42;;;;;;;18.89;61.96;100428.50;5002013;28;20069;-36
2023/12/22 05:25:13;;;;;;;6.32;2.38;;;;;;;18.98;61.62;100425.97;4998913;28;20479;-36
2023/12/22 05:27:39;;;;;;;9.20;2.55;;;;;;;19.08;61.68;100427.78;5015288;28;20049;-37
2023/12/22 05:30:05;;;;;;;6.85;2.28;;;;;;;19.17;61.54;100430.69;4989367;28;20445;-37
2023/12/22 05:32:30;;;;;;;7.80;2.63;;;;;;;19.24;61.49;100423.72;4999049;28;20026;-37
2023/12/22 05:34:56;;;;;;;7.85;2.47;;;;;;;19.32;61.57;100432.41;4988457;28;20024;-38
2023/12/22 05:37:21;;;;;;;8.60;2.30;;;;;;;19.41;61.38;100427.88;5003068;28;20475;-39
2023/12/22 05:39:46;;;;;;;6.82;2.58;;;;;;;19.48;61.17;100436.56;5001076;28;20192;-39
2023/12/22 05:42:12;;;;;;;8.13;2.47;;;;;;;19.55;61.10;100434.25;4991177;28;20559;-37
2023/12/22 05:44:38;;;;;;;9.23;3.15;;;;;;;19.63;60.97;100430.03;5004454;28;20036;-37
2023/12/22 05:47:04;;;;;;;7.68;2.80;;;;;;;19.71;60.96;100432.09;4986123;28;20025;-37
2023/12/22 05:49:30;;;;;;;8.82;2.65;;;;;;;19.79;61.14;100421.53;5006253;28;20057;-37
2023/12/22 05:51:55;;;;;;;8.70;2.42;;;;;;;19.85;60.87;100418.47;5003988;28;20108;-38
2023/12/22 05:54:21;;;;;;;8.15;2.58;;;;;;;19.91;60.52;100427.44;5003227;28;20025;-39
2023/12/22 05:56:46;;;;;;;7.72;2.67;;;;;;;19.99;60.57;100434.19;5007582;28;20021;-37
2023/12/22 05:59:11;;;;;;;8.77;2.90;;;;;;;20.04;60.50;100440.41;4987748;28;20053;-37
2023/12/22 06:01:37;;;;;;;10.15;2.78;;;;;;;20.09;60.43;100439.53;4992412;28;20238;-38
2023/12/22 06:04:03;;;;;;;8.13;2.80;;;;;;;20.14;60.27;100450.44;5004859;28;20034;-36
2023/12/22 06:06:29;;;;;;;10.50;3.60;;;;;;;20.15;60.43;100452.06;5003788;28;20030;-36
2023/12/22 06:08:55;;;;;;;10.65;3.15;;;;;;;20.16;60.57;100439.16;5006120;28;20046;-38
2023/12/22 06:11:21;;;;;;;12.13;3.50;;;;;;;20.16;60.60;100441.91;5009844;28;20412;-39
2023/12/22 06:13:47;;;;;;;7.25;2.70;;;;;;;20.17;60.49;100440.75;5002796;28;20034;-38
2023/12/22 06:16:14;;;;;;;9.43;3.00;;;;;;;20.16;60.53;100444.66;5004205;28;20509;-38
2023/12/22 06:18:40;;;;;;;11.98;3.08;;;;;;;20.16;60.39;100450.97;4996315;28;20037;-37
2023/12/22 06:21:05;;;;;;;10.00;3.35;;;;;;;20.16;60.61;100459.22;4986600;28;20489;-38
2023/12/22 06:23:30;;;;;;;13.68;3.80;;;;;;;20.15;60.32;100451.28;5003008;28;20088;-36
2023/12/22 06:25:56;;;;;;;8.57;3.20;;;;;;;20.15;60.68;100454.03;5002934;28;20104;-38
2023/12/22 06:28:21;;;;;;;10.52;3.17;;;;;;;20.13;60.78;100456.25;4999131;28;20046;-37
2023/12/22 06:30:47;;;;;;;9.40;3.72;;;;;;;20.11;60.66;100461.22;5003467;28;20026;-37
2023/12/22 06:33:13;;;;;;;9.80;3.55;;;;;;;20.10;60.54;100454.09;4995088;28;20431;-38
2023/12/22 06:35:40;;;;;;;11.20;3.25;;;;;;;20.08;60.66;100448.88;4985249;28;20029;-38
2023/12/22 06:38:06;;;;;;;12.18;3.90;;;;;;;20.06;60.53;100461.31;5008031;28;20113;-37
2023/12/22 06:40:32;;;;;;;11.93;3.53;;;;;;;20.01;60.48;100454.78;5011292;28;20100;-36
2023/12/22 06:42:57;;;;;;;8.73;3.17;;;;;;;19.99;60.66;100437.75;5006828;28;20064;-36
2023/12/22 06:45:23;;;;;;;12.35;4.18;;;;;;;19.97;60.87;100437.22;5004444;28;20463;-38
2023/12/22 06:47:48;;;;;;;10.60;3.40;;;;;;;19.95;60.65;100439.50;5004051;28;20029;-38
2023/12/22 06:50:13;;;;;;;10.80;3.80;;;;;;;19.93;60.79;100447.22;5005209;28;20077;-38
2023/12/22 06:52:39;;;;;;;10.38;3.25;;;;;;;19.89;60.76;100435.19;5005335;28;20497;-38
2023/12/22 06:55:05;;;;;;;11.20;3.67;;;;;;;19.86;60.93;100424.75;5001994;28;20029;-38
2023/12/22 06:57:30;;;;;;;9.68;3.60;;;;;;;19.82;61.18;100401.72;5005078;28;20951;-36
2023/12/22 06:59:56;;;;;;;10.27;3.78;;;;;;;19.79;60.89;100418.78;5002029;28;20835;-36
2023/12/22 07:02:21;;;;;;;10.48;3.45;;;;;;;19.76;61.19;100427.66;5003999;28;20184;-36
2023/12/22 07:05:11;;;;;;;9.93;3.45;;;;;;;19.70;61.26;100419.47;5003244;28;20035;-37
2023/12/22 07:07:37;;;;;;;9.40;3.35;;;;;;;19.67;61.26;100420.06;5004748;28;20066;-38
2023/12/22 07:10:02;;;;;;;10.93;3.65;;;;;;;19.64;61.26;100428.91;5006664;28;20498;-37
2023/12/22 07:12:27;;;;;;;7.43;3.55;;;;;;;19.60;61.19;100424.31;5000832;28;20567;-37
2023/12/22 07:14:53;;;;;;;13.18;3.80;;;;;;;19.57;61.45;100423.00;5001530;28;20486;-37
2023/12/22 07:17:19;;;;;;;11.07;3.47;;;;;;;19.53;61.28;100425.50;5004135;28;20044;-37
2023/12/22 07:19:44;;;;;;;13.02;4.00;;;;;;;19.49;61.62;100424.47;4982976;28;20053;-36
2023/12/22 07:22:10;;;;;;;13.55;3.70;;;;;;;19.47;61.65;100432.22;5002442;28;20033;-37
2023/12/22 07:24:35;;;;;;;10.77;4.10;;;;;;;19.43;61.46;100425.66;5002750;28;20093;-38
2023/12/22 07:27:00;;;;;;;9.48;3.67;;;;;;;19.40;61.72;100420.75;5001577;28;20630;-37
2023/12/22 07:29:26;;;;;;;13.90;3.70;;;;;;;19.37;61.62;100416.69;5004328;28;20037;-36
2023/12/22 07:31:51;;;;;;;10.73;3.53;;;;;;;19.34;61.68;100416.44;5003087;28;20057;-36
2023/12/22 07:34:18;;;;;;;13.38;4.00;;;;;;;19.32;62.02;100424.97;5002682;28;20065;-38
2023/12/22 07:36:44;;;;;;;14.38;4.13;;;;;;;19.30;61.91;100418.13;5002019;28;20057;-37
2023/12/22 07:39:10;;;;;;;13.40;3.80;;;;;;;19.28;61.97;100421.19;5005369;28;20508;-37
2023/12/22 07:41:36;;;;;;;12.02;3.95;;;;;;;19.25;62.05;100421.75;5004128;28;20034;-36
2023/12/22 07:44:01;;;;;;;14.68;3.92;;;;;;;19.24;61.98;100422.91;5002562;28;20521;-37
2023/12/22 07:46:28;;;;;;;11.68;4.03;;;;;;;19.21;61.85;100416.06;4999223;28;20029;-37
2023/12/22 07:48:53;;;;;;;11.85;4.20;;;;;;;19.18;62.25;100427.63;5003378;28;20221;-36
2023/12/22 07:51:20;;;;;;;11.93;3.78;;;;;;;19.16;62.37;100426.28;5004269;28;20161;-36
2023/12/22 07:53:45;;;;;;;11.00;3.33;;;;;;;19.13;62.18;100419.47;5004497;28;20025;-37
2023/12/22 07:56:11;;;;;;;14.30;3.67;;;;;;;19.12;62.35;100426.06;4993506;28;20438;-37
2023/12/22 07:58:37;;;;;;;13.57;3.40;;;;;;;19.11;62.43;100420.88;5008676;28;20036;-36
2023/12/22 08:01:03;;;;;;;12.02;3.50;;;;;;;19.07;62.34;100421.44;4988122;28;20057;-36
2023/12/22 08:03:29;;;;;;;9.85;3.85;;;;;;;19.05;62.73;100412.69;5008055;28;20022;-36
2023/12/22 08:05:55;;;;;;;12.23;3.58;;;;;;;19.03;62.46;100419.56;5000317;28;20121;-36
2023/12/22 08:08:21;;;;;;;13.15;4.28;;;;;;;19.01;62.81;100413.59;4999906;28;20065;-37
2023/12/22 08:10:46;;;;;;;10.05;3.50;;;;;;;19.00;62.63;100398.22;4987583;28;20487;-37
2023/12/22 08:13:11;;;;;;;11.18;3.75;;;;;;;18.98;62.91;100412.25;4992616;28;20026;-38
2023/12/22 08:15:37;;;;;;;8.77;2.95;;;;;;;18.96;62.81;100413.63;4999751;28;20501;-36
2023/12/22 08:18:02;;;;;;;10.88;3.28;;;;;;;18.95;62.68;100401.84;4998671;28;20531;-36
2023/12/22 08:20:28;;;;;;;9.32;3.47;;;;;;;18.93;63.09;100417.78;4997814;28;20051;-36
2023/12/22 08:22:54;;;;;;;9.57;3.30;;;;;;;18.91;62.90;100409.84;4996587;28;20099;-37
2023/12/22 08:25:20;;;;;;;9.35;3.38;;;;;;;18.90;63.21;100413.66;5002662;28;20033;-36
2023/12/22 08:27:45;;;;;;;10.07;3.40;;;;;;;18.90;63.24;100413.66;4992916;28;20043;-36
2023/12/22 08:30:11;;;;;;;11.23;3.25;;;;;;;18.88;63.17;100418.66;4981304;28;20395;-37
2023/12/22 08:32:37;;;;;;;9.52;3.35;;;;;;;18.88;63.11;100426.06;4991041;28;20022;-36
2023/12/22 08:35:04;;;;;;;11.23;3.50;;;;;;;18.87;63.38;100407.94;4992398;28;20035;-36
2023/12/22 08:37:30;;;;;;;9.05;2.97;;;;;;;18.86;63.36;100417.28;4976905;28;20042;-37
2023/12/22 08:39:55;;;;;;;11.40;3.15;;;;;;;18.85;63.37;100412.91;4990411;28;20037;-36
2023/12/22 08:42:22;;;;;;;9.50;2.85;;;;;;;18.83;63.53;100401.41;4988203;28;20034;-37
2023/12/22 08:44:47;;;;;;;9.18;3.35;;;;;;;18.82;63.38;100406.09;4992639;28;20034;-38
2023/12/22 08:47:13;;;;;;;7.72;2.88;;;;;;;18.81;63.46;100398.97;4986252;28;20446;-36
2023/12/22 08:49:38;;;;;;;8.73;3.17;;;;;;;18.81;63.81;100392.63;4972555;28;20049;-37
2023/12/22 08:52:04;;;;;;;8.85;3.25;;;;;;;18.80;63.83;100386.34;4989547;28;20061;-36
2023/12/22 08:54:30;;;;;;;12.50;2.88;;;;;;;18.80;63.66;100394.56;4970815;28;20058;-38
2023/12/22 08:56:55;;;;;;;9.77;2.70;;;;;;;18.80;64.06;100386.34;4972061;28;20332;-37
2023/12/22 08:59:20;;;;;;;9.55;2.90;;;;;;;18.79;64.03;100405.84;4975805;28;20105;-38
2023/12/22 09:01:46;;;;;;;6.80;2.78;;;;;;;18.78;63.96;100402.28;4991210;28;20026;-36
2023/12/22 09:04:11;;;;;;;7.85;2.60;;;;;;;18.77;64.08;100397.91;4987323;28;20030;-36
2023/12/22 09:06:37;;;;;;;10.45;2.80;;;;;;;18.76;63.95;100418.22;4968130;28;20117;-36
2023/12/22 09:09:03;;;;;;;9.98;3.42;;;;;;;18.76;64.14;100420.97;4991057;28;20475;-37
2023/12/22 09:11:29;;;;;;;12.20;3.28;;;;;;;18.75;64.36;100419.34;4996776;28;20036;-37
2023/12/22 09:13:54;;;;;;;12.05;3.67;;;;;;;18.74;64.30;100410.28;4974303;28;20037;-36
2023/12/22 09:16:23;;;;;;;15.45;4.97;;;;;;;18.73;64.40;100400.41;4996741;28;20034;-36
2023/12/22 09:18:49;;;;;;;12.38;4.00;;;;;;;18.73;64.44;100402.34;4995725;28;20034;-36
2023/12/22 09:21:17;;;;;;;11.88;3.45;;;;;;;18.73;64.35;100402.34;4980898;28;20030;-39
2023/12/22 09:23:45;;;;;;;10.20;3.53;;;;;;;18.71;64.45;100405.38;4981052;28;20061;-36
2023/12/22 09:26:11;;;;;;;14.23;3.92;;;;;;;18.71;64.78;100410.03;4975654;28;20395;-38
2023/12/22 09:28:36;;;;;;;12.05;3.60;;;;;;;18.70;65.12;100409.25;4998354;28;20033;-36
2023/12/22 09:31:05;;;;;;;13.48;4.18;;;;;;;18.68;65.18;100410.66;4998326;28;20724;-36
2023/12/22 09:33:30;;;;;;;13.85;4.13;;;;;;;18.68;65.30;100416.13;4996789;28;20121;-37
2023/12/22 09:35:56;;;;;;;13.20;3.58;;;;;;;18.68;65.21;100427.13;5000386;28;20181;-37
2023/12/22 09:38:23;;;;;;;16.65;4.68;;;;;;;18.67;65.50;100426.28;4981629;28;20597;-36
2023/12/22 09:40:51;;;;;;;21.33;4.40;;;;;;;18.68;65.59;100435.34;4997596;28;20036;-36
2023/12/22 09:43:19;;;;;;;15.73;4.55;;;;;;;18.68;65.40;100408.69;4991650;28;20033;-36
2023/12/22 09:45:46;;;;;;;15.45;3.88;;;;;;;18.72;65.50;100419.91;4998211;28;20174;-37
2023/12/22 09:48:16;;;;;;;14.43;4.40;;;;;;;18.74;65.18;100421.25;4990942;28;20455;-36
2023/12/22 09:50:43;;;;;;;13.15;3.55;;;;;;;18.79;65.47;100416.84;4995577;28;20533;-36
2023/12/22 09:53:09;;;;;;;12.80;3.85;;;;;;;18.81;65.19;100415.44;4996501;28;20064;-37
2023/12/22 09:55:34;;;;;;;17.02;3.75;;;;;;;18.84;65.29;100414.03;4996846;28;20509;-37
2023/12/22 09:58:01;;;;;;;13.52;3.30;;;;;;;18.87;65.45;100435.38;4979819;28;20034;-37
2023/12/22 10:00:28;;;;;;;11.32;3.40;;;;;;;18.91;65.47;100441.97;4982030;28;20066;-37
2023/12/22 10:02:54;;;;;;;9.77;3.58;;;;;;;18.93;64.95;100415.03;4955577;28;20034;-36
2023/12/22 10:05:19;;;;;;;10.38;3.33;;;;;;;18.96;65.30;100433.69;4973854;28;20089;-35
2023/12/22 10:07:46;;;;;;;12.13;3.28;;;;;;;19.00;65.28;100431.97;4997899;28;20022;-37
2023/12/22 10:10:11;;;;;;;11.57;3.47;;;;;;;19.02;65.23;100434.44;4994715;28;20034;-37
2023/12/22 10:12:39;;;;;;;9.27;3.25;;;;;;;19.05;65.01;100444.81;4993753;28;20034;-37
2023/12/22 10:15:05;;;;;;;12.80;2.95;;;;;;;19.05;64.95;100442.09;4992318;28;20084;-36
2023/12/22 10:17:31;;;;;;;7.65;2.80;;;;;;;19.05;65.16;100437.41;4975506;28;20605;-36
2023/12/22 10:19:56;;;;;;;8.40;2.60;;;;;;;19.04;64.95;100435.78;4977650;28;20029;-38
2023/12/22 10:22:23;;;;;;;10.40;2.97;;;;;;;19.06;64.90;100435.47;4992175;28;20084;-38
2023/12/22 10:24:50;;;;;;;10.40;3.17;;;;;;;19.06;64.83;100438.22;4994376;28;20061;-37
2023/12/22 10:27:22;;;;;;;11.30;2.67;;;;;;;19.06;65.10;100444.53;5002180;28;20049;-37
2023/12/22 10:29:48;;;;;;;5.43;2.33;;;;;;;19.06;65.21;100427.25;4995413;28;20034;-38
2023/12/22 10:32:14;;;;;;;9.13;2.88;;;;;;;19.06;65.16;100435.47;4997153;28;20483;-38
2023/12/22 10:34:39;;;;;;;10.43;2.92;;;;;;;19.07;64.88;100435.19;5001129;28;20033;-37
2023/12/22 10:37:05;;;;;;;5.35;2.22;;;;;;;19.10;64.88;100444.75;5005641;28;20506;-37
2023/12/22 10:39:31;;;;;;;8.98;2.30;;;;;;;19.13;65.03;100449.69;5006767;28;20310;-39
2023/12/22 10:41:57;;;;;;;5.30;2.05;;;;;;;19.15;64.81;100441.13;5014583;28;20069;-38
2023/12/22 10:44:26;;;;;;;9.77;2.60;;;;;;;19.14;65.14;100437.59;5002889;28;20423;-37
2023/12/22 10:46:54;;;;;;;9.88;2.72;;;;;;;19.15;65.08;100438.38;5002675;28;20045;-37
2023/12/22 10:49:19;;;;;;;5.63;2.28;;;;;;;19.14;64.86;100428.50;5004550;28;20030;-37
2023/12/22 10:51:45;;;;;;;6.05;2.13;;;;;;;19.14;64.80;100431.25;5004323;28;20076;-37
2023/12/22 10:54:10;;;;;;;6.90;2.22;;;;;;;19.12;64.87;100439.81;5006780;28;20446;-36
2023/12/22 10:56:36;;;;;;;6.35;2.30;;;;;;;19.13;65.03;100435.13;5003962;28;20028;-37
2023/12/22 10:59:02;;;;;;;6.07;2.10;;;;;;;19.12;65.06;100441.75;4999523;28;20050;-37
2023/12/22 11:01:37;;;;;;;6.43;2.15;;;;;;;19.11;65.17;100443.66;5000952;28;20112;-37
2023/12/22 11:04:03;;;;;;;5.88;2.10;;;;;;;19.11;65.06;100423.63;4986760;28;20057;-37
2023/12/22 11:06:35;;;;;;;4.93;1.77;;;;;;;19.10;65.00;100422.78;5001378;28;20064;-36
2023/12/22 11:09:05;;;;;;;7.60;2.45;;;;;;;19.09;64.97;100434.88;5006763;28;20041;-37
2023/12/22 11:11:33;;;;;;;6.55;2.28;;;;;;;19.11;64.94;100424.44;5005420;28;20390;-37
2023/12/22 11:14:03;;;;;;;7.05;2.03;;;;;;;19.11;65.04;100426.38;4985712;28;20025;-37
2023/12/22 11:16:29;;;;;;;5.82;2.03;;;;;;;19.12;64.94;100433.50;5001889;28;20517;-36